Terminal Aerodrome Forecast
Issued by NWS Atlanta, GA

Home | Current Version | Previous Version | Text Only | Print | Product List | Glossary On
Versions: 1 2 3 4 5 6 7 8 9 10 11 12 13 14 15 16 17 18 19 20 21 22 23 24 25 26 27 28 29 30 31 32 33 34 35 36 37 38 39 40 41 42 43
000
FTUS42 KFFC 241958 AAB
TAFATL
TAF AMD
KATL 241958Z 2420/2524 34008KT 3SM BR OVC005
      TEMPO 2420/2423 1 1/2SM -DZ BR OVC003
     FM242300 32005KT 5SM BR BKN008
     FM250200 31005KT P6SM BKN025
     FM250600 31005KT P6SM SCT030 BKN250
     FM251500 32006KT P6SM OVC050 PROB30 2515/2518 6SM -RAPL OVC040
     FM251900 33006KT 5SM -RASN OVC025=

USA.gov is the U.S. government's official web portal to all federal, state and local government web resources and services.